createdAt,value
2022-11-12T00:00:24.517Z,54.80
2022-11-12T00:03:15.117Z,57.70
2022-11-12T00:06:02.853Z,49.70
2022-11-12T00:08:50.071Z,43.90
2022-11-12T00:11:37.295Z,40.90
2022-11-12T00:14:24.617Z,46.90
2022-11-12T00:17:12.145Z,48.40
2022-11-12T00:19:59.572Z,47.50
2022-11-12T00:22:46.997Z,53.50
2022-11-12T00:25:34.936Z,46.60
2022-11-12T00:28:22.158Z,64.80
2022-11-12T00:31:11.780Z,78.60
2022-11-12T00:33:59.469Z,77.80
2022-11-12T00:36:46.689Z,96.10
2022-11-12T00:39:34.114Z,79.90
2022-11-12T00:42:21.543Z,90.40
2022-11-12T00:45:09.929Z,105.40
2022-11-12T00:47:57.828Z,92.00
2022-11-12T00:50:45.050Z,94.00
2022-11-12T00:53:33.371Z,95.90
2022-11-12T00:56:20.414Z,103.10
2022-11-12T00:59:07.840Z,99.40
2022-11-12T01:01:55.266Z,87.70
2022-11-12T01:04:42.815Z,85.60
2022-11-12T01:07:30.325Z,89.50
2022-11-12T01:10:17.750Z,81.00
2022-11-12T01:13:04.970Z,81.00
2022-11-12T01:15:52.500Z,84.10
2022-11-12T01:18:40.543Z,64.10
2022-11-12T01:21:31.403Z,62.90
2022-11-12T01:24:18.773Z,64.00
2022-11-12T01:27:06.405Z,63.70
2022-11-12T01:29:53.936Z,53.10
2022-11-12T01:32:41.359Z,51.60
2022-11-12T01:35:28.594Z,51.70
2022-11-12T01:38:16.015Z,42.90
2022-11-12T01:41:05.072Z,52.60
2022-11-12T01:44:29.465Z,59.90
2022-11-12T01:47:33.586Z,47.60
2022-11-12T01:50:27.309Z,49.60
2022-11-12T01:53:15.093Z,42.80
2022-11-12T01:56:05.541Z,48.20
2022-11-12T01:59:02.604Z,49.30
2022-11-12T02:01:50.168Z,47.70
2022-11-12T02:04:40.959Z,49.80
2022-11-12T02:07:29.817Z,46.60
2022-11-12T02:10:17.268Z,51.40
2022-11-12T02:13:23.329Z,51.40
2022-11-12T02:16:11.165Z,48.80
2022-11-12T02:18:59.041Z,46.70
2022-11-12T02:21:47.251Z,39.20
2022-11-12T02:24:37.064Z,37.30
2022-11-12T02:27:24.759Z,38.70
2022-11-12T02:30:12.898Z,45.50
2022-11-12T02:33:00.942Z,43.10
2022-11-12T02:35:48.171Z,40.60
2022-11-12T02:38:35.487Z,38.80
2022-11-12T02:41:23.218Z,35.80
2022-11-12T02:44:10.848Z,38.20
2022-11-12T02:46:58.069Z,42.10
2022-11-12T02:49:45.291Z,39.70
2022-11-12T02:52:33.023Z,40.60
2022-11-12T02:55:20.758Z,33.70
2022-11-12T02:58:08.183Z,36.10
2022-11-12T03:00:56.379Z,33.90
2022-11-12T03:03:43.651Z,33.20
2022-11-12T03:06:31.077Z,27.40
2022-11-12T03:09:18.196Z,31.20
2022-11-12T03:12:06.135Z,33.80
2022-11-12T03:14:53.156Z,26.80
2022-11-12T03:17:40.476Z,30.80
2022-11-12T03:20:28.741Z,28.50
2022-11-12T03:23:15.948Z,26.50
2022-11-12T03:26:05.626Z,30.40
2022-11-12T03:28:53.154Z,28.80
2022-11-12T03:31:40.575Z,26.30
2022-11-12T03:34:27.798Z,27.40
2022-11-12T03:37:15.121Z,27.80
2022-11-12T03:40:02.245Z,23.40
2022-11-12T03:42:52.284Z,23.40
2022-11-12T03:45:39.657Z,22.70
2022-11-12T03:48:27.208Z,27.70
2022-11-12T03:51:16.658Z,25.60
2022-11-12T03:54:04.598Z,28.80
2022-11-12T03:56:51.922Z,22.50
2022-11-12T03:59:39.243Z,21.80
2022-11-12T04:02:27.081Z,18.50
2022-11-12T04:05:33.862Z,22.90
2022-11-12T04:08:36.256Z,24.40
2022-11-12T04:11:24.992Z,22.30
2022-11-12T04:14:12.418Z,26.40
2022-11-12T04:17:18.481Z,23.00
2022-11-12T04:20:25.673Z,21.00
2022-11-12T04:23:13.209Z,21.50
2022-11-12T04:26:19.468Z,20.80
2022-11-12T04:29:25.532Z,20.60
2022-11-12T04:32:12.958Z,19.20
2022-11-12T04:35:01.297Z,17.80
2022-11-12T04:37:49.347Z,21.90
2022-11-12T04:40:55.717Z,22.40
2022-11-12T04:44:01.780Z,21.30
2022-11-12T04:46:49.162Z,25.70
2022-11-12T04:49:36.530Z,20.60
2022-11-12T04:52:24.161Z,22.60
2022-11-12T04:55:12.102Z,19.80
2022-11-12T04:58:01.005Z,20.90
2022-11-12T05:00:50.007Z,25.20
2022-11-12T05:03:37.146Z,23.00
2022-11-12T05:06:43.140Z,20.80
2022-11-12T05:09:30.940Z,23.70
2022-11-12T05:12:18.470Z,21.90
2022-11-12T05:15:06.922Z,24.20
2022-11-12T05:17:54.244Z,30.70
2022-11-12T05:20:41.670Z,34.00
2022-11-12T05:23:29.192Z,31.00
2022-11-12T05:26:16.727Z,32.40
2022-11-12T05:29:08.671Z,30.40
2022-11-12T05:31:56.499Z,29.20
2022-11-12T05:34:43.819Z,34.30
2022-11-12T05:37:31.243Z,35.60
2022-11-12T05:40:18.467Z,32.10
2022-11-12T05:43:05.688Z,35.90
2022-11-12T05:45:53.012Z,29.60
2022-11-12T05:48:40.334Z,32.90
2022-11-12T05:51:27.761Z,36.60
2022-11-12T05:54:15.187Z,37.90
2022-11-12T05:57:02.622Z,41.40
2022-11-12T05:59:49.834Z,35.60
2022-11-12T06:02:37.293Z,37.80
2022-11-12T06:05:24.790Z,38.60
2022-11-12T06:08:12.216Z,40.20
2022-11-12T06:10:59.641Z,40.70
2022-11-12T06:13:46.968Z,35.50
2022-11-12T06:16:34.495Z,40.20
2022-11-12T06:19:21.614Z,35.10
2022-11-12T06:22:08.936Z,33.50
2022-11-12T06:24:56.363Z,29.20
2022-11-12T06:27:43.688Z,35.10
2022-11-12T06:30:31.012Z,36.40
2022-11-12T06:33:18.538Z,31.80
2022-11-12T06:36:07.496Z,38.10
2022-11-12T06:38:54.929Z,40.10
2022-11-12T06:41:42.254Z,34.40
2022-11-12T06:44:29.449Z,33.30
2022-11-12T06:47:17.006Z,29.40
2022-11-12T06:50:05.247Z,42.20
2022-11-12T06:52:58.446Z,42.20
2022-11-12T06:55:46.448Z,44.00
2022-11-12T06:58:34.492Z,58.40
2022-11-12T07:01:22.171Z,54.70
2022-11-12T07:04:10.709Z,58.30
2022-11-12T07:06:57.806Z,61.30
2022-11-12T07:09:45.116Z,55.70
2022-11-12T07:12:32.543Z,56.30
2022-11-12T07:15:19.672Z,56.50
2022-11-12T07:18:06.987Z,54.60
2022-11-12T07:21:02.828Z,42.30
2022-11-12T07:23:50.338Z,46.30
2022-11-12T07:26:37.661Z,42.80
2022-11-12T07:29:46.348Z,41.80
2022-11-12T07:32:32.484Z,38.50
2022-11-12T07:35:19.705Z,45.40
2022-11-12T07:38:07.130Z,43.30
2022-11-12T07:41:11.759Z,32.60
2022-11-12T07:43:59.291Z,69.20
2022-11-12T07:46:46.304Z,50.90
2022-11-12T07:49:33.733Z,62.90
2022-11-12T07:52:21.787Z,45.50
2022-11-12T07:55:09.588Z,48.60
2022-11-12T07:58:00.549Z,35.80
2022-11-12T08:00:47.945Z,44.10
2022-11-12T08:03:35.580Z,45.20
2022-11-12T08:06:23.975Z,42.70
2022-11-12T08:09:11.658Z,80.80
2022-11-12T08:11:59.187Z,88.10
2022-11-12T08:14:46.510Z,82.60
2022-11-12T08:17:38.951Z,126.10
2022-11-12T08:20:25.967Z,119.10
2022-11-12T08:23:13.707Z,95.90
2022-11-12T08:26:04.168Z,77.10
2022-11-12T08:28:52.145Z,74.50
2022-11-12T08:31:39.568Z,67.80
2022-11-12T08:34:26.997Z,47.70
2022-11-12T08:37:14.135Z,41.80
2022-11-12T08:40:01.754Z,48.50
2022-11-12T08:42:48.934Z,48.40
2022-11-12T08:45:40.087Z,45.00
2022-11-12T08:48:29.317Z,42.60
2022-11-12T08:51:17.387Z,43.10
2022-11-12T08:54:05.124Z,41.40
2022-11-12T08:56:52.544Z,45.70
2022-11-12T08:59:40.075Z,57.90
2022-11-12T09:02:27.398Z,40.40
2022-11-12T09:05:14.822Z,31.50
2022-11-12T09:08:06.886Z,26.10
2022-11-12T09:10:54.489Z,22.80
2022-11-12T09:13:42.181Z,16.50
2022-11-12T09:16:30.059Z,14.70
2022-11-12T09:19:17.505Z,15.60
2022-11-12T09:22:05.319Z,15.90
2022-11-12T09:24:52.543Z,15.20
2022-11-12T09:27:43.187Z,24.80
2022-11-12T09:30:37.039Z,21.10
2022-11-12T09:33:30.087Z,21.80
2022-11-12T09:36:18.530Z,14.90
2022-11-12T09:39:05.764Z,16.40
2022-11-12T09:41:55.536Z,19.90
2022-11-12T09:45:18.404Z,21.30
2022-11-12T09:48:11.747Z,20.50
2022-11-12T09:51:12.596Z,16.50
2022-11-12T09:54:22.652Z,18.30
2022-11-12T09:57:14.890Z,24.00
2022-11-12T10:00:03.715Z,31.70
2022-11-12T10:03:07.775Z,22.70
2022-11-12T10:06:35.898Z,26.70
2022-11-12T10:09:30.280Z,24.10
2022-11-12T10:12:47.877Z,22.50
2022-11-12T10:16:24.052Z,18.50
2022-11-12T10:19:40.555Z,18.50
2022-11-12T10:23:07.602Z,17.50
2022-11-12T10:26:09.570Z,14.60
2022-11-12T10:29:08.284Z,15.20
2022-11-12T10:31:56.001Z,18.70
2022-11-12T10:34:43.420Z,16.50
2022-11-12T10:38:04.641Z,17.40
2022-11-12T10:40:52.391Z,16.60
2022-11-12T10:43:53.996Z,18.30
2022-11-12T10:46:41.458Z,19.50
2022-11-12T10:49:29.353Z,16.90
2022-11-12T10:52:24.798Z,20.80
2022-11-12T10:55:37.149Z,23.80
2022-11-12T10:58:24.924Z,23.60
2022-11-12T11:01:18.012Z,19.10
2022-11-12T11:04:15.680Z,17.50
2022-11-12T11:07:16.448Z,17.30
2022-11-12T11:10:05.017Z,19.70
2022-11-12T11:13:23.119Z,21.10
2022-11-12T11:16:21.309Z,13.70
2022-11-12T11:19:09.603Z,14.00
2022-11-12T11:22:23.409Z,17.10
2022-11-12T11:25:45.541Z,15.40
2022-11-12T11:28:59.785Z,19.00
2022-11-12T11:31:57.963Z,16.80
2022-11-12T11:35:05.073Z,16.80
2022-11-12T11:38:08.860Z,14.80
2022-11-12T11:41:02.737Z,18.30
2022-11-12T11:44:03.518Z,20.80
2022-11-12T11:47:50.551Z,15.50
2022-11-12T11:50:56.359Z,14.50
2022-11-12T11:54:15.528Z,15.50
2022-11-12T11:57:12.602Z,16.60
2022-11-12T12:00:21.495Z,16.30
2022-11-12T12:03:41.553Z,12.60
2022-11-12T12:06:33.127Z,12.80
2022-11-12T12:09:38.370Z,17.80
2022-11-12T12:12:40.439Z,21.80
2022-11-12T12:15:52.648Z,12.90
2022-11-12T12:19:03.627Z,12.50
2022-11-12T12:21:52.764Z,11.30
2022-11-12T12:24:58.476Z,12.30
2022-11-12T12:28:13.224Z,13.10
2022-11-12T12:31:09.082Z,13.60
2022-11-12T12:34:06.910Z,10.00
2022-11-12T12:37:21.181Z,12.40
2022-11-12T12:40:43.613Z,8.70
2022-11-12T12:43:53.154Z,12.10
2022-11-12T12:46:58.647Z,23.00
2022-11-12T12:49:49.553Z,17.70
2022-11-12T12:53:25.684Z,12.40
2022-11-12T12:56:15.770Z,13.80
2022-11-12T12:59:04.222Z,12.50
2022-11-12T13:02:01.994Z,12.40
2022-11-12T13:04:57.580Z,20.20
2022-11-12T13:07:50.064Z,12.70
2022-11-12T13:10:37.384Z,10.50
2022-11-12T13:13:37.835Z,9.50
2022-11-12T13:16:51.554Z,7.80
2022-11-12T13:20:08.758Z,11.80
2022-11-12T13:22:56.428Z,9.90
2022-11-12T13:25:44.038Z,13.00
2022-11-12T13:28:31.903Z,14.70
2022-11-12T13:31:30.391Z,12.70
2022-11-12T13:34:32.955Z,10.40
2022-11-12T13:37:23.545Z,10.80
2022-11-12T13:40:24.488Z,10.40
2022-11-12T13:43:35.986Z,9.10
2022-11-12T13:46:34.359Z,12.10
2022-11-12T13:49:22.400Z,10.50
2022-11-12T13:52:14.699Z,11.40
2022-11-12T13:55:18.040Z,10.40
2022-11-12T13:58:18.711Z,11.20
2022-11-12T14:01:08.074Z,8.80
2022-11-12T14:03:55.378Z,10.20
2022-11-12T14:06:57.559Z,12.20
2022-11-12T14:10:34.943Z,26.70
2022-11-12T14:13:56.777Z,10.90
2022-11-12T14:17:00.387Z,8.70
2022-11-12T14:20:19.044Z,9.10
2022-11-12T14:23:20.074Z,8.30
2022-11-12T14:26:13.318Z,10.00
2022-11-12T14:29:01.229Z,11.40
2022-11-12T14:32:03.262Z,12.70
2022-11-12T14:34:50.786Z,14.30
2022-11-12T14:37:43.280Z,12.90
2022-11-12T14:40:55.872Z,16.50
2022-11-12T14:43:46.610Z,18.40
2022-11-12T14:46:45.345Z,15.50
2022-11-12T14:49:44.870Z,17.80
2022-11-12T14:52:43.509Z,22.40
2022-11-12T14:55:36.087Z,18.80
2022-11-12T14:58:25.285Z,22.10
2022-11-12T15:02:08.792Z,21.90
2022-11-12T15:04:56.004Z,19.90
2022-11-12T15:08:10.992Z,19.20
2022-11-12T15:11:22.486Z,28.60
2022-11-12T15:14:22.045Z,28.10
2022-11-12T15:17:34.914Z,27.70
2022-11-12T15:20:22.508Z,24.10
2022-11-12T15:23:19.803Z,22.40
2022-11-12T15:26:23.513Z,19.90
2022-11-12T15:29:10.741Z,16.30
2022-11-12T15:32:24.101Z,16.00
2022-11-12T15:35:22.189Z,15.30
2022-11-12T15:38:38.850Z,22.00
2022-11-12T15:41:30.767Z,20.10
2022-11-12T15:44:18.418Z,18.10
2022-11-12T15:47:06.457Z,18.00
2022-11-12T15:49:59.427Z,16.80
2022-11-12T15:52:47.395Z,22.90
2022-11-12T15:55:38.055Z,36.80
2022-11-12T15:58:34.110Z,50.00
2022-11-12T16:01:21.788Z,43.30
2022-11-12T16:04:14.158Z,62.70
2022-11-12T16:07:01.750Z,63.00
2022-11-12T16:09:49.439Z,58.00
2022-11-12T16:12:36.849Z,47.30
2022-11-12T16:15:25.841Z,52.10
2022-11-12T16:18:13.133Z,42.80
2022-11-12T16:21:00.380Z,50.50
2022-11-12T16:23:48.095Z,43.80
2022-11-12T16:26:37.071Z,55.30
2022-11-12T16:29:24.272Z,40.90
2022-11-12T16:32:15.592Z,41.40
2022-11-12T16:35:03.219Z,44.60
2022-11-12T16:37:53.924Z,46.50
2022-11-12T16:40:42.376Z,57.40
2022-11-12T16:43:30.350Z,52.20
2022-11-12T16:46:39.612Z,56.40
2022-11-12T16:49:27.081Z,104.90
2022-11-12T16:52:14.815Z,91.60
2022-11-12T16:55:04.765Z,73.30
2022-11-12T16:57:52.531Z,69.80
2022-11-12T17:00:50.450Z,69.40
2022-11-12T17:03:38.239Z,72.60
2022-11-12T17:06:41.018Z,70.50
2022-11-12T17:09:28.553Z,61.10
2022-11-12T17:12:15.983Z,63.00
2022-11-12T17:15:03.816Z,66.10
2022-11-12T17:17:54.513Z,73.70
2022-11-12T17:20:42.195Z,65.70
2022-11-12T17:23:30.935Z,62.40
2022-11-12T17:26:20.795Z,53.40
2022-11-12T17:29:08.604Z,42.60
2022-11-12T17:31:55.950Z,43.20
2022-11-12T17:34:43.582Z,43.90
2022-11-12T17:37:31.146Z,44.00
2022-11-12T17:40:18.537Z,40.10
2022-11-12T17:43:05.761Z,41.40
2022-11-12T17:45:55.227Z,48.20
2022-11-12T17:48:43.069Z,53.90
2022-11-12T17:51:30.291Z,56.10
2022-11-12T17:54:17.935Z,52.70
2022-11-12T17:57:05.656Z,47.60
2022-11-12T17:59:53.527Z,48.50
2022-11-12T18:02:40.611Z,47.30
2022-11-12T18:05:28.038Z,112.50
2022-11-12T18:08:16.077Z,117.10
2022-11-12T18:11:06.270Z,129.00
2022-11-12T18:13:54.006Z,101.00
2022-11-12T18:16:41.859Z,232.20
2022-11-12T18:19:29.577Z,191.60
2022-11-12T18:22:17.307Z,115.80
2022-11-12T18:25:07.632Z,62.60
2022-11-12T18:27:55.230Z,41.00
2022-11-12T18:30:42.656Z,52.50
2022-11-12T18:33:31.154Z,59.60
2022-11-12T18:36:24.410Z,57.00
2022-11-12T18:39:12.106Z,44.30
2022-11-12T18:41:59.426Z,30.90
2022-11-12T18:44:46.865Z,32.80
2022-11-12T18:47:34.588Z,32.60
2022-11-12T18:50:22.220Z,32.70
2022-11-12T18:53:09.602Z,31.20
2022-11-12T18:56:02.603Z,55.80
2022-11-12T18:58:50.638Z,52.50
2022-11-12T19:01:38.619Z,60.30
2022-11-12T19:04:26.619Z,78.90
2022-11-12T19:07:14.272Z,71.70
2022-11-12T19:10:14.715Z,63.30
2022-11-12T19:13:05.259Z,69.90
2022-11-12T19:15:52.811Z,87.20
2022-11-12T19:18:42.152Z,77.70
2022-11-12T19:21:29.608Z,60.50
2022-11-12T19:24:17.551Z,55.30
2022-11-12T19:27:05.301Z,52.60
2022-11-12T19:29:52.808Z,51.50
2022-11-12T19:32:40.471Z,55.60
2022-11-12T19:35:28.082Z,52.60
2022-11-12T19:38:15.805Z,57.30
2022-11-12T19:41:19.481Z,65.10
2022-11-12T19:44:07.662Z,104.50
2022-11-12T19:46:55.393Z,106.40
2022-11-12T19:49:43.145Z,123.60
2022-11-12T19:52:30.656Z,116.70
2022-11-12T19:55:18.709Z,137.70
2022-11-12T19:58:08.349Z,111.20
2022-11-12T20:01:09.916Z,112.00
2022-11-12T20:03:59.100Z,100.20
2022-11-12T20:06:47.000Z,96.20
2022-11-12T20:09:34.581Z,92.40
2022-11-12T20:12:22.218Z,95.80
2022-11-12T20:15:10.671Z,89.80
2022-11-12T20:17:58.190Z,104.60
2022-11-12T20:21:05.273Z,126.30
2022-11-12T20:23:53.202Z,88.10
2022-11-12T20:26:40.733Z,104.30
2022-11-12T20:29:28.256Z,99.30
2022-11-12T20:32:16.093Z,108.60
2022-11-12T20:35:08.537Z,113.10
2022-11-12T20:38:00.288Z,120.70
2022-11-12T20:40:47.833Z,124.00
2022-11-12T20:43:35.957Z,113.50
2022-11-12T20:46:25.234Z,112.80
2022-11-12T20:49:12.425Z,113.80
2022-11-12T20:51:59.662Z,99.40
2022-11-12T20:54:46.770Z,97.60
2022-11-12T20:57:34.191Z,75.60
2022-11-12T21:00:24.282Z,77.00
2022-11-12T21:03:11.916Z,64.80
2022-11-12T21:06:03.868Z,63.40
2022-11-12T21:08:51.883Z,83.50
2022-11-12T21:11:39.423Z,78.50
2022-11-12T21:14:26.531Z,74.40
2022-11-12T21:17:13.651Z,70.20
2022-11-12T21:20:00.881Z,66.60
2022-11-12T21:22:48.483Z,63.30
2022-11-12T21:25:38.366Z,59.10
2022-11-12T21:28:28.857Z,60.20
2022-11-12T21:31:32.594Z,57.20
2022-11-12T21:34:19.610Z,52.40
2022-11-12T21:37:07.035Z,58.50
2022-11-12T21:39:54.161Z,55.90
2022-11-12T21:42:45.374Z,61.70
2022-11-12T21:45:32.697Z,56.80
2022-11-12T21:48:20.329Z,55.30
2022-11-12T21:51:12.185Z,53.20
2022-11-12T21:54:06.779Z,55.30
2022-11-12T21:56:54.279Z,57.00
2022-11-12T21:59:41.501Z,57.10
2022-11-12T22:02:29.083Z,62.90
2022-11-12T22:05:16.458Z,60.00
2022-11-12T22:08:03.778Z,64.50
2022-11-12T22:10:51.000Z,71.80
2022-11-12T22:13:38.734Z,55.80
2022-11-12T22:16:29.514Z,57.90
2022-11-12T22:19:19.574Z,63.80
2022-11-12T22:22:07.260Z,64.90
2022-11-12T22:24:54.276Z,80.80
2022-11-12T22:27:41.702Z,95.90
2022-11-12T22:30:29.231Z,87.90
2022-11-12T22:33:16.574Z,93.10
2022-11-12T22:36:11.274Z,79.40
2022-11-12T22:38:59.086Z,93.50
2022-11-12T22:41:46.992Z,73.80
2022-11-12T22:44:34.348Z,75.80
2022-11-12T22:47:21.774Z,80.90
2022-11-12T22:50:10.536Z,82.10
2022-11-12T22:52:57.857Z,71.40
2022-11-12T22:55:45.179Z,76.20
2022-11-12T22:58:36.993Z,72.10
2022-11-12T23:01:31.278Z,64.80
2022-11-12T23:04:19.029Z,67.90
2022-11-12T23:07:06.468Z,60.60
2022-11-12T23:09:54.087Z,57.60
2022-11-12T23:12:41.411Z,60.30
2022-11-12T23:15:32.641Z,58.20
2022-11-12T23:18:20.769Z,63.10
2022-11-12T23:21:12.450Z,64.20
2022-11-12T23:24:00.166Z,64.10
2022-11-12T23:26:47.246Z,59.40
2022-11-12T23:29:34.981Z,57.60
2022-11-12T23:32:22.408Z,57.50
2022-11-12T23:35:11.268Z,76.00
2022-11-12T23:37:58.897Z,60.30
2022-11-12T23:40:56.430Z,61.50
2022-11-12T23:43:44.424Z,330.50
2022-11-12T23:46:31.621Z,201.50
2022-11-12T23:49:18.944Z,50.10
2022-11-12T23:52:06.169Z,45.20
2022-11-12T23:54:53.390Z,159.10
2022-11-12T23:57:40.918Z,131.90
